Airfield :
LOGIN :

Register | Disclaimer

   EN    FR    IT 

 










Legend :    VFR   Marginal VFR   IFR   Intensive IFR   Very Intensive IFR
Visi :
Ceiling :
>= 8 km
>= 3000ft
5 to 8 km
1000 to 3000 ft
1500m to 5 km
500 to 1000 ft
800 to 1500m
200 to 500 ft
< 800m
< 200 ft
Symbols :   Thunderstorms  Fog  Heavy snow  Heavy precipitations  Wind > 20 kt
SIGMETs :     Misc.  Thunderstorms  Icing  Turbulence  Mountain Waves  Volcanic Ashes







- Airport Elevation : 200 ft


EBBL - Klein Brogel AB

CURRENT METAR :
  • 210225Z AUTO VRB02KT 9999 NCD 09/08 Q1020 BLU

EXPIRED METARs :
  • 210155Z AUTO VRB02KT 9999 FEW056/// 09/08 Q1021 BLU
  • 210125Z AUTO 19003KT 9999 BKN056/// 10/08 Q1021 BLU
  • 210055Z AUTO 18003KT 9999 NCD 09/08 Q1021 BLU
  • 210025Z AUTO VRB02KT 9999 NCD 09/08 Q1021 BLU
  • 202355Z AUTO VRB02KT 9999 NCD 09/08 Q1021 BLU

TAF TAF EBBL
Valid from the 20 at 19:00 until the 21 at 07:00 UTC


201541Z 2019/2107 20005KT 9999 SCT030 SCT220
TEMPO 2102/2107 5000 BR
No reported NOTAMs for that airfield.



MET'MAP, your aeronautical weather chart ! - Copyright ORBIFLY December 2007 - Disclaimer

ORBIFLY MET'MAP TEAM :

Programming & Development : Alexandra Zaïnal
Concept & Development : Baudouin d'Aumeries
Co-Development & Prog : Marc-Olivier Méhu
Technical & hardware support : Manuel Goepfert

Contact : metmap@orbifly.com




SOURCES & CREDITS :

   NOAA